Time;durP1;ratioP1;P1;durP2;ratioP2;P2;SDS_P1;SDS_P2;PMS_P1;PMS_P2;Temp;Humidity;BMP_temperature;BMP_pressure;BME280_temperature;BME280_humidity;BME280_pressure;Samples;Min_cycle;Max_cycle;Signal;HPM_P1;HPM_P2
2023/06/17 00:00:07;;;;;;;7.68;5.40;;;15.20;99.90;;;;;;2099384;28;20085;-74
2023/06/17 00:01:08;;;;;;;7.30;5.90;;;15.20;99.90;;;;;;2092456;28;20029;-75
2023/06/17 00:02:09;;;;;;;7.93;5.90;;;15.20;99.90;;;;;;2095205;28;20039;-75
2023/06/17 00:03:10;;;;;;;8.40;5.68;;;15.20;99.90;;;;;;2108625;27;20040;-75
2023/06/17 00:04:10;;;;;;;7.57;5.40;;;15.10;99.90;;;;;;2101632;28;20028;-75
2023/06/17 00:05:11;;;;;;;6.18;5.13;;;15.10;99.90;;;;;;2084712;28;20029;-74
2023/06/17 00:06:11;;;;;;;8.95;5.55;;;15.10;99.90;;;;;;2100487;28;20074;-75
2023/06/17 00:07:12;;;;;;;7.40;5.30;;;15.10;99.90;;;;;;2094371;28;20403;-76
2023/06/17 00:08:13;;;;;;;9.00;5.47;;;15.10;99.90;;;;;;2103784;28;20038;-76
2023/06/17 00:09:13;;;;;;;5.70;5.15;;;15.10;99.90;;;;;;2091320;28;20116;-73
2023/06/17 00:10:14;;;;;;;9.02;5.70;;;15.10;99.90;;;;;;2097727;28;20033;-74
2023/06/17 00:11:14;;;;;;;9.18;6.03;;;15.10;99.90;;;;;;2104261;28;20040;-73
2023/06/17 00:12:15;;;;;;;7.93;5.55;;;15.10;99.90;;;;;;2101522;28;20020;-74
2023/06/17 00:13:19;;;;;;;7.07;5.65;;;15.10;99.90;;;;;;2092518;28;20189;-74
2023/06/17 00:14:20;;;;;;;8.88;5.70;;;15.10;99.90;;;;;;2092339;28;20055;-74
2023/06/17 00:15:22;;;;;;;8.27;5.35;;;15.00;99.90;;;;;;2084308;28;20103;-73
2023/06/17 00:16:23;;;;;;;6.88;5.32;;;15.00;99.90;;;;;;2103633;28;20065;-73
2023/06/17 00:17:23;;;;;;;6.60;5.50;;;15.00;99.90;;;;;;2099831;28;20398;-73
2023/06/17 00:18:25;;;;;;;7.07;5.50;;;15.00;99.90;;;;;;2089308;28;20057;-74
2023/06/17 00:19:25;;;;;;;6.50;5.82;;;15.00;99.90;;;;;;2089293;28;20560;-73
2023/06/17 00:20:26;;;;;;;9.00;5.80;;;15.00;99.90;;;;;;2095933;28;20130;-73
2023/06/17 00:21:27;;;;;;;6.78;5.68;;;15.00;99.90;;;;;;2092478;28;20158;-73
2023/06/17 00:22:29;;;;;;;8.60;5.72;;;15.00;99.90;;;;;;2092098;28;20454;-74
2023/06/17 00:23:30;;;;;;;10.48;6.65;;;15.00;99.90;;;;;;2099852;28;20048;-73
2023/06/17 00:24:31;;;;;;;7.18;5.90;;;15.00;99.90;;;;;;2102459;28;20502;-73
2023/06/17 00:25:32;;;;;;;9.75;6.32;;;14.90;99.90;;;;;;2091095;28;20033;-75
2023/06/17 00:26:32;;;;;;;8.15;6.40;;;15.00;99.90;;;;;;2097150;28;20032;-74
2023/06/17 00:27:33;;;;;;;9.10;6.57;;;14.90;99.90;;;;;;2091413;28;20055;-73
2023/06/17 00:28:34;;;;;;;6.22;5.55;;;15.00;99.90;;;;;;2085907;28;20147;-73
2023/06/17 00:29:35;;;;;;;6.90;5.93;;;14.90;99.90;;;;;;2085903;28;20028;-74
2023/06/17 00:30:36;;;;;;;7.38;5.85;;;14.90;99.90;;;;;;2096005;28;20038;-73
2023/06/17 00:31:37;;;;;;;7.30;5.90;;;14.90;99.90;;;;;;2080550;28;20378;-73
2023/06/17 00:32:39;;;;;;;7.15;5.90;;;14.90;99.90;;;;;;2091958;28;20029;-74
2023/06/17 00:33:41;;;;;;;7.85;5.82;;;14.90;99.90;;;;;;2094029;28;20021;-74
2023/06/17 00:34:42;;;;;;;8.23;6.32;;;14.80;99.90;;;;;;2100175;28;20055;-74
2023/06/17 00:35:43;;;;;;;12.35;6.80;;;14.80;99.90;;;;;;2095429;28;20024;-75
2023/06/17 00:36:43;;;;;;;11.95;6.72;;;14.80;99.90;;;;;;2088565;28;20912;-74
2023/06/17 00:37:44;;;;;;;7.93;6.35;;;14.80;99.90;;;;;;2085783;28;20117;-74
2023/06/17 00:38:45;;;;;;;7.47;6.60;;;14.70;99.90;;;;;;2087299;28;20029;-74
2023/06/17 00:39:45;;;;;;;7.65;6.70;;;14.70;99.90;;;;;;2095085;28;20547;-74
2023/06/17 00:40:46;;;;;;;7.45;6.63;;;14.70;99.90;;;;;;2100739;28;20510;-75
2023/06/17 00:41:46;;;;;;;8.98;7.03;;;14.70;99.90;;;;;;2094742;28;20209;-75
2023/06/17 00:42:47;;;;;;;10.23;6.97;;;14.70;99.90;;;;;;2092944;28;20029;-75
2023/06/17 00:43:49;;;;;;;9.43;6.40;;;14.70;99.90;;;;;;2100448;28;20122;-75
2023/06/17 00:44:49;;;;;;;10.15;7.57;;;14.70;99.90;;;;;;2095371;28;20041;-75
2023/06/17 00:45:50;;;;;;;8.45;7.00;;;14.70;99.90;;;;;;2101538;28;20031;-75
2023/06/17 00:46:53;;;;;;;9.45;7.35;;;14.70;99.90;;;;;;2098048;28;20027;-75
2023/06/17 00:47:54;;;;;;;9.57;7.25;;;14.70;99.90;;;;;;2097935;28;20558;-74
2023/06/17 00:48:54;;;;;;;8.05;6.93;;;14.70;99.90;;;;;;2096257;28;20033;-76
2023/06/17 00:49:55;;;;;;;8.98;7.38;;;14.70;99.90;;;;;;2099939;28;20540;-74
2023/06/17 00:51:01;;;;;;;8.23;6.90;;;14.70;99.90;;;;;;2095045;28;20028;-74
2023/06/17 00:52:04;;;;;;;8.43;6.95;;;14.70;99.90;;;;;;2100158;28;20020;-74
2023/06/17 00:53:06;;;;;;;7.55;6.72;;;14.70;99.90;;;;;;2093456;28;20025;-74
2023/06/17 00:54:07;;;;;;;7.88;6.72;;;14.70;99.90;;;;;;2100387;28;20089;-75
2023/06/17 00:55:09;;;;;;;8.98;6.80;;;14.80;99.90;;;;;;2092143;28;20028;-75
2023/06/17 00:56:10;;;;;;;9.05;7.40;;;14.80;99.90;;;;;;2092004;28;20099;-74
2023/06/17 00:57:14;;;;;;;8.48;7.45;;;14.80;99.90;;;;;;2092649;28;20032;-74
2023/06/17 00:58:16;;;;;;;7.35;6.65;;;14.80;99.90;;;;;;2080339;28;20025;-74
2023/06/17 00:59:16;;;;;;;8.05;6.93;;;14.80;99.90;;;;;;2083301;28;20025;-74
2023/06/17 01:00:17;;;;;;;7.82;7.03;;;14.80;99.90;;;;;;2095546;28;20035;-74
2023/06/17 01:01:17;;;;;;;8.95;7.00;;;14.80;99.90;;;;;;2100537;28;20621;-73
2023/06/17 01:02:19;;;;;;;10.43;7.18;;;14.80;99.90;;;;;;2101034;28;20047;-73
2023/06/17 01:03:22;;;;;;;8.38;7.32;;;14.80;99.90;;;;;;2093711;28;20029;-73
2023/06/17 01:04:23;;;;;;;9.30;7.25;;;14.80;99.90;;;;;;2101919;28;20031;-74
2023/06/17 01:05:24;;;;;;;8.40;7.38;;;14.80;99.90;;;;;;2099457;28;20069;-74
2023/06/17 01:06:45;;;;;;;8.93;6.78;;;14.80;99.90;;;;;;2091196;28;20029;-74
2023/06/17 01:08:33;;;;;;;7.85;7.07;;;14.90;99.90;;;;;;2095633;28;20123;-75
2023/06/17 01:09:38;;;;;;;8.70;7.80;;;14.90;99.90;;;;;;2098942;28;20031;-75
2023/06/17 01:10:53;;;;;;;10.07;8.25;;;14.80;99.90;;;;;;2098116;28;20031;-75
2023/06/17 01:11:58;;;;;;;9.82;8.05;;;14.80;99.90;;;;;;2092134;28;20059;-71
2023/06/17 01:13:02;;;;;;;9.02;7.60;;;14.80;99.90;;;;;;2083934;28;20175;-76
2023/06/17 01:14:05;;;;;;;9.88;7.40;;;14.80;99.90;;;;;;2090966;28;20537;-76
2023/06/17 01:15:08;;;;;;;7.97;7.05;;;14.80;99.90;;;;;;2099130;28;20163;-74
2023/06/17 01:16:09;;;;;;;10.55;8.05;;;14.80;99.90;;;;;;2099711;28;20372;-75
2023/06/17 01:17:12;;;;;;;11.10;8.25;;;14.80;99.90;;;;;;2096076;28;20033;-73
2023/06/17 01:18:17;;;;;;;10.90;8.30;;;14.80;99.90;;;;;;2097898;28;20395;-73
2023/06/17 01:19:24;;;;;;;10.65;7.90;;;14.70;99.90;;;;;;2097916;28;20047;-74
2023/06/17 01:20:26;;;;;;;11.60;7.82;;;14.70;99.90;;;;;;2091196;28;20107;-74
2023/06/17 01:21:30;;;;;;;9.50;7.55;;;14.70;99.90;;;;;;2092584;28;20115;-73
2023/06/17 01:22:33;;;;;;;8.23;7.32;;;14.70;99.90;;;;;;2103926;28;20035;-74
2023/06/17 01:23:37;;;;;;;7.45;6.75;;;14.70;99.90;;;;;;2101702;28;20032;-73
2023/06/17 01:24:38;;;;;;;10.60;7.80;;;14.70;99.90;;;;;;2101072;28;20042;-74
2023/06/17 01:25:39;;;;;;;10.52;7.80;;;14.70;99.90;;;;;;2102637;28;20495;-74
2023/06/17 01:26:40;;;;;;;8.63;7.68;;;14.70;99.90;;;;;;2093066;28;20039;-75
2023/06/17 01:27:41;;;;;;;10.07;7.70;;;14.70;99.90;;;;;;2098329;28;20035;-75
2023/06/17 01:28:44;;;;;;;8.52;7.63;;;14.70;99.90;;;;;;2096933;28;20041;-74
2023/06/17 01:29:48;;;;;;;10.00;8.00;;;14.70;99.90;;;;;;2102264;28;20081;-75
2023/06/17 01:30:54;;;;;;;10.60;8.65;;;14.70;99.90;;;;;;2097825;28;20063;-75
2023/06/17 01:31:59;;;;;;;10.02;7.93;;;14.70;99.90;;;;;;2101828;28;20411;-75
2023/06/17 01:33:00;;;;;;;9.95;7.93;;;14.70;99.90;;;;;;2098922;28;20039;-75
2023/06/17 01:34:02;;;;;;;9.95;7.63;;;14.70;99.90;;;;;;2102815;28;20039;-75
2023/06/17 01:35:07;;;;;;;10.25;7.50;;;14.70;99.90;;;;;;2101512;28;20103;-75
2023/06/17 01:36:16;;;;;;;8.35;7.20;;;14.60;99.90;;;;;;2095184;28;20036;-75
2023/06/17 01:37:35;;;;;;;8.95;7.50;;;14.60;99.90;;;;;;2092756;28;20036;-75
2023/06/17 01:38:44;;;;;;;8.48;7.50;;;14.60;99.90;;;;;;2092227;28;20492;-75
2023/06/17 01:39:47;;;;;;;9.00;7.57;;;14.60;99.90;;;;;;2098141;28;20036;-76
2023/06/17 01:40:54;;;;;;;10.68;8.35;;;14.60;99.90;;;;;;2084341;28;20032;-75
2023/06/17 01:41:59;;;;;;;8.57;7.53;;;14.50;99.90;;;;;;2086742;28;20780;-75
2023/06/17 01:43:02;;;;;;;9.07;7.57;;;14.50;99.90;;;;;;2086557;28;20117;-74
2023/06/17 01:44:04;;;;;;;9.82;7.75;;;14.50;99.90;;;;;;2097110;28;20123;-74
2023/06/17 01:45:06;;;;;;;9.45;7.57;;;14.50;99.90;;;;;;2104217;28;20373;-74
2023/06/17 01:46:07;;;;;;;10.73;8.02;;;14.50;99.90;;;;;;2093917;28;20027;-74
2023/06/17 01:47:10;;;;;;;11.35;8.07;;;14.50;99.90;;;;;;2097379;28;20079;-74
2023/06/17 01:48:11;;;;;;;9.95;7.95;;;14.60;99.90;;;;;;2091002;28;20053;-74
2023/06/17 01:49:11;;;;;;;9.75;8.10;;;14.60;99.90;;;;;;2095369;28;20081;-74
2023/06/17 01:50:18;;;;;;;9.60;7.75;;;14.60;99.90;;;;;;2087330;28;20028;-74
2023/06/17 01:51:19;;;;;;;9.00;7.65;;;14.60;99.90;;;;;;2095863;28;20473;-75
2023/06/17 01:52:20;;;;;;;8.90;8.00;;;14.60;99.90;;;;;;2101266;28;20071;-75
2023/06/17 01:53:22;;;;;;;9.80;8.10;;;14.60;99.90;;;;;;2101595;28;20298;-75
2023/06/17 01:54:23;;;;;;;10.60;8.35;;;14.60;99.90;;;;;;2093243;28;20053;-75
2023/06/17 01:55:24;;;;;;;9.35;8.25;;;14.60;99.90;;;;;;2100936;28;20491;-74
2023/06/17 01:56:25;;;;;;;9.27;8.13;;;14.60;99.90;;;;;;2099150;28;20031;-72
2023/06/17 01:57:26;;;;;;;8.93;7.90;;;14.60;99.90;;;;;;2107468;28;20027;-75
2023/06/17 01:58:28;;;;;;;8.93;7.93;;;14.60;99.90;;;;;;2099115;28;20052;-74
2023/06/17 01:59:30;;;;;;;9.25;7.70;;;14.60;99.90;;;;;;2092035;28;20035;-70
2023/06/17 02:00:31;;;;;;;9.30;8.30;;;14.60;99.90;;;;;;2100407;28;20027;-70
2023/06/17 02:01:32;;;;;;;9.38;8.30;;;14.60;99.90;;;;;;2101547;28;20023;-70
2023/06/17 02:02:32;;;;;;;9.60;8.60;;;14.70;99.90;;;;;;2097557;28;20123;-70
2023/06/17 02:03:35;;;;;;;9.90;8.10;;;14.70;99.90;;;;;;2102819;28;20155;-70
2023/06/17 02:04:36;;;;;;;9.35;7.82;;;14.70;99.90;;;;;;2100014;28;20077;-70
2023/06/17 02:05:36;;;;;;;9.73;8.73;;;14.70;99.90;;;;;;2100210;28;20184;-71
2023/06/17 02:06:39;;;;;;;10.05;8.43;;;14.70;99.90;;;;;;2099416;28;20032;-71
2023/06/17 02:07:40;;;;;;;10.73;8.40;;;14.70;99.90;;;;;;2089048;28;20033;-71
2023/06/17 02:08:42;;;;;;;9.55;8.02;;;14.70;99.90;;;;;;2099974;28;20036;-71
2023/06/17 02:09:42;;;;;;;9.02;8.13;;;14.70;99.90;;;;;;2100727;28;20029;-71
2023/06/17 02:10:43;;;;;;;10.65;8.82;;;14.70;99.90;;;;;;2100666;28;20119;-71
2023/06/17 02:11:43;;;;;;;9.48;8.43;;;14.70;99.90;;;;;;2100743;28;20048;-73
2023/06/17 02:12:45;;;;;;;9.02;8.10;;;14.70;99.90;;;;;;2093020;28;20558;-71
2023/06/17 02:13:45;;;;;;;10.20;8.55;;;14.70;99.90;;;;;;2098134;28;20119;-71
2023/06/17 02:14:46;;;;;;;10.27;8.48;;;14.70;99.90;;;;;;2103259;28;20039;-71
2023/06/17 02:15:47;;;;;;;9.50;7.97;;;14.70;99.90;;;;;;2098150;28;20515;-70
2023/06/17 02:16:48;;;;;;;9.10;8.15;;;14.70;99.90;;;;;;2086520;28;20013;-71
2023/06/17 02:17:48;;;;;;;10.82;8.38;;;14.70;99.90;;;;;;2089219;28;20048;-71
2023/06/17 02:18:54;;;;;;;8.90;7.97;;;14.70;99.90;;;;;;2089790;28;20108;-70
2023/06/17 02:19:55;;;;;;;8.85;7.95;;;14.70;99.90;;;;;;2095966;28;20036;-70
2023/06/17 02:20:55;;;;;;;9.35;7.63;;;14.70;99.90;;;;;;2093228;28;20032;-70
2023/06/17 02:21:56;;;;;;;9.50;8.30;;;14.70;99.90;;;;;;2100977;28;20027;-70
2023/06/17 02:22:58;;;;;;;9.23;8.15;;;14.70;99.90;;;;;;2101816;28;20142;-70
2023/06/17 02:23:59;;;;;;;9.05;8.05;;;14.70;99.90;;;;;;2098297;28;20560;-70
2023/06/17 02:25:00;;;;;;;10.70;7.60;;;14.70;99.90;;;;;;2089865;28;20033;-71
2023/06/17 02:26:00;;;;;;;9.45;8.45;;;14.70;99.90;;;;;;2099058;28;20047;-71
2023/06/17 02:27:01;;;;;;;9.75;7.63;;;14.70;99.90;;;;;;2099049;28;20082;-70
2023/06/17 02:28:02;;;;;;;10.18;8.02;;;14.70;99.90;;;;;;2097849;28;20040;-70
2023/06/17 02:29:04;;;;;;;9.98;7.80;;;14.80;99.90;;;;;;2102621;28;20090;-71
2023/06/17 02:30:06;;;;;;;8.48;7.57;;;14.80;99.90;;;;;;2095263;28;20032;-70
2023/06/17 02:31:07;;;;;;;10.25;7.63;;;14.80;99.90;;;;;;2083928;28;20052;-70
2023/06/17 02:32:08;;;;;;;10.02;8.10;;;14.80;99.90;;;;;;2092177;28;20048;-70
2023/06/17 02:33:08;;;;;;;9.80;7.90;;;14.80;99.90;;;;;;2096139;28;20036;-70
2023/06/17 02:34:09;;;;;;;10.30;7.97;;;14.80;99.90;;;;;;2101750;28;20030;-70
2023/06/17 02:35:12;;;;;;;9.48;7.57;;;14.80;99.90;;;;;;2097994;28;20038;-70
2023/06/17 02:36:14;;;;;;;8.85;7.78;;;14.80;99.90;;;;;;2095155;28;20020;-70
2023/06/17 02:37:15;;;;;;;8.35;7.45;;;14.80;99.90;;;;;;2086209;28;20438;-70
2023/06/17 02:38:17;;;;;;;8.85;7.60;;;14.90;99.90;;;;;;2094135;28;20463;-71
2023/06/17 02:39:18;;;;;;;8.52;7.57;;;14.90;99.90;;;;;;2093522;28;20056;-70
2023/06/17 02:40:18;;;;;;;10.63;7.75;;;14.90;99.90;;;;;;2095534;28;20027;-71
2023/06/17 02:41:19;;;;;;;8.57;7.53;;;15.00;99.90;;;;;;2102327;28;20088;-71
2023/06/17 02:42:20;;;;;;;8.98;7.00;;;15.00;99.90;;;;;;2101865;28;20032;-71
2023/06/17 02:43:23;;;;;;;8.77;7.20;;;15.00;99.90;;;;;;2094267;28;20060;-69
2023/06/17 02:44:23;;;;;;;8.38;7.53;;;15.10;99.90;;;;;;2092121;28;20491;-69
2023/06/17 02:45:25;;;;;;;8.43;7.45;;;15.00;99.90;;;;;;2098177;28;20074;-70
2023/06/17 02:46:26;;;;;;;9.05;7.22;;;15.10;99.90;;;;;;2098244;28;20455;-71
2023/06/17 02:47:27;;;;;;;9.40;7.35;;;15.10;99.90;;;;;;2098974;28;20505;-71
2023/06/17 02:48:27;;;;;;;8.20;7.40;;;15.10;99.90;;;;;;2097668;28;20578;-71
2023/06/17 02:49:28;;;;;;;10.70;8.38;;;15.10;99.90;;;;;;2092564;28;20029;-71
2023/06/17 02:50:28;;;;;;;11.65;8.60;;;15.10;99.90;;;;;;2090831;28;20048;-71
2023/06/17 02:51:29;;;;;;;10.00;8.75;;;15.10;99.90;;;;;;2093840;28;20093;-71
2023/06/17 02:52:30;;;;;;;9.05;7.85;;;15.10;99.90;;;;;;2091843;28;20531;-71
2023/06/17 02:53:31;;;;;;;10.27;8.30;;;15.20;99.90;;;;;;2092460;28;20051;-70
2023/06/17 02:54:35;;;;;;;10.23;8.60;;;15.20;99.90;;;;;;2093853;28;20035;-70
2023/06/17 02:55:38;;;;;;;11.88;8.75;;;15.20;99.90;;;;;;2094921;28;20063;-70
2023/06/17 02:56:46;;;;;;;9.82;8.25;;;15.20;99.90;;;;;;2095446;28;20028;-70
2023/06/17 02:57:47;;;;;;;9.45;8.45;;;15.10;99.90;;;;;;2097971;28;20031;-70
2023/06/17 02:58:48;;;;;;;9.88;8.25;;;15.10;99.90;;;;;;2097921;28;20492;-70
2023/06/17 02:59:49;;;;;;;10.02;8.73;;;15.10;99.90;;;;;;2092708;28;20025;-70
2023/06/17 03:00:50;;;;;;;8.38;7.40;;;15.10;99.90;;;;;;2088700;28;20066;-70
2023/06/17 03:01:51;;;;;;;10.15;7.90;;;15.10;99.90;;;;;;2095246;28;20059;-71
2023/06/17 03:02:52;;;;;;;9.98;7.80;;;15.10;99.90;;;;;;2084068;28;20021;-71
2023/06/17 03:03:55;;;;;;;9.80;8.20;;;15.10;99.90;;;;;;2094164;28;20043;-72
2023/06/17 03:04:56;;;;;;;11.70;8.30;;;15.10;99.90;;;;;;2096300;28;20024;-71
2023/06/17 03:05:58;;;;;;;11.52;8.38;;;15.20;99.90;;;;;;2105763;28;20016;-71
2023/06/17 03:06:59;;;;;;;10.15;8.68;;;15.20;99.90;;;;;;2093834;28;20016;-72
2023/06/17 03:08:00;;;;;;;11.93;9.23;;;15.20;99.90;;;;;;2088319;28;20590;-70
2023/06/17 03:09:03;;;;;;;10.40;9.13;;;15.10;99.90;;;;;;2095539;28;20511;-70
2023/06/17 03:10:04;;;;;;;9.63;8.63;;;15.10;99.90;;;;;;2094939;28;20021;-72
2023/06/17 03:11:09;;;;;;;11.15;8.75;;;15.10;99.90;;;;;;2095202;28;20267;-72
2023/06/17 03:12:12;;;;;;;10.43;8.10;;;15.10;99.90;;;;;;2101185;28;20131;-71
2023/06/17 03:13:13;;;;;;;9.77;8.00;;;15.10;99.90;;;;;;2101781;28;20036;-72
2023/06/17 03:14:19;;;;;;;9.70;8.32;;;15.10;99.90;;;;;;2093542;28;20504;-71
2023/06/17 03:15:21;;;;;;;9.77;8.02;;;15.10;99.90;;;;;;2100198;28;20013;-71
2023/06/17 03:16:25;;;;;;;8.85;7.85;;;15.10;99.90;;;;;;2100977;28;20025;-72
2023/06/17 03:17:25;;;;;;;9.35;8.35;;;15.10;99.90;;;;;;2100721;28;20458;-71
2023/06/17 03:18:27;;;;;;;10.15;8.25;;;15.10;99.90;;;;;;2100843;28;20808;-72
2023/06/17 03:19:28;;;;;;;11.25;8.82;;;15.20;99.90;;;;;;2109056;27;20043;-72
2023/06/17 03:20:28;;;;;;;9.23;8.18;;;15.20;99.90;;;;;;2102053;28;20023;-72
2023/06/17 03:21:30;;;;;;;9.52;8.07;;;15.20;99.90;;;;;;2094506;28;20485;-71
2023/06/17 03:22:31;;;;;;;9.20;7.97;;;15.20;99.90;;;;;;2089227;28;20184;-71
2023/06/17 03:23:32;;;;;;;9.30;8.38;;;15.20;99.90;;;;;;2097565;28;20043;-71
2023/06/17 03:24:32;;;;;;;10.77;7.80;;;15.20;99.90;;;;;;2093236;28;20036;-70
2023/06/17 03:25:34;;;;;;;9.15;8.23;;;15.20;99.90;;;;;;2087325;28;20032;-70
2023/06/17 03:26:35;;;;;;;10.75;7.88;;;15.20;99.90;;;;;;2098279;28;20957;-70
2023/06/17 03:27:35;;;;;;;9.90;8.35;;;15.30;99.90;;;;;;2096643;28;20041;-70
2023/06/17 03:28:37;;;;;;;8.93;7.40;;;15.30;99.90;;;;;;2096974;28;20024;-70
2023/06/17 03:29:37;;;;;;;9.40;8.45;;;15.30;99.90;;;;;;2094561;28;20044;-70
2023/06/17 03:30:42;;;;;;;8.95;7.20;;;15.30;99.90;;;;;;2086192;28;20037;-70
2023/06/17 03:31:43;;;;;;;9.88;8.07;;;15.30;99.90;;;;;;2089112;28;20024;-71
2023/06/17 03:32:44;;;;;;;10.52;7.93;;;15.30;99.90;;;;;;2092910;28;20540;-71
2023/06/17 03:33:46;;;;;;;10.00;8.10;;;15.30;99.90;;;;;;2095867;28;20047;-71
2023/06/17 03:34:47;;;;;;;11.68;8.45;;;15.40;99.90;;;;;;2091388;28;20047;-71
2023/06/17 03:35:48;;;;;;;9.80;8.80;;;15.40;99.90;;;;;;2090850;28;20106;-71
2023/06/17 03:36:50;;;;;;;12.00;7.88;;;15.40;99.90;;;;;;2092232;28;20032;-71
2023/06/17 03:37:51;;;;;;;9.20;8.00;;;15.40;99.90;;;;;;2092853;28;20107;-71
2023/06/17 03:38:51;;;;;;;8.43;7.60;;;15.40;99.90;;;;;;2099682;28;20032;-71
2023/06/17 03:39:52;;;;;;;9.75;8.35;;;15.40;99.90;;;;;;2097793;28;20059;-72
2023/06/17 03:40:52;;;;;;;9.20;8.00;;;15.50;99.90;;;;;;2097899;28;20052;-72
2023/06/17 03:41:53;;;;;;;10.70;8.57;;;15.50;99.90;;;;;;2097803;28;20024;-72
2023/06/17 03:42:54;;;;;;;9.80;8.05;;;15.50;99.90;;;;;;2093430;28;20059;-71
2023/06/17 03:43:55;;;;;;;10.35;8.35;;;15.50;99.90;;;;;;2092056;28;20060;-72
2023/06/17 03:44:56;;;;;;;9.90;8.40;;;15.50;99.90;;;;;;2092149;28;20031;-72
2023/06/17 03:45:57;;;;;;;9.07;8.00;;;15.50;99.90;;;;;;2092031;28;20076;-71
2023/06/17 03:46:59;;;;;;;10.48;8.25;;;15.60;99.90;;;;;;2092862;28;20024;-71
2023/06/17 03:48:00;;;;;;;11.68;8.05;;;15.60;99.90;;;;;;2097582;28;20077;-71
2023/06/17 03:49:00;;;;;;;10.65;8.25;;;15.60;99.90;;;;;;2099914;28;20032;-71
2023/06/17 03:50:01;;;;;;;10.98;8.27;;;15.60;99.90;;;;;;2094496;28;20111;-73
2023/06/17 03:51:03;;;;;;;10.75;8.20;;;15.60;99.90;;;;;;2090353;28;20021;-70
2023/06/17 03:52:04;;;;;;;10.90;8.25;;;15.60;99.90;;;;;;2097738;28;20025;-71
2023/06/17 03:53:05;;;;;;;9.35;7.78;;;15.60;99.90;;;;;;2103068;28;20028;-70
2023/06/17 03:54:06;;;;;;;10.35;8.57;;;15.70;99.90;;;;;;2095821;28;20423;-71
2023/06/17 03:55:10;;;;;;;10.48;8.68;;;15.70;99.90;;;;;;2091417;28;20062;-71
2023/06/17 03:56:11;;;;;;;10.38;8.38;;;15.70;99.90;;;;;;2095652;28;20062;-71
2023/06/17 03:57:12;;;;;;;9.80;7.85;;;15.70;99.90;;;;;;2096643;28;20069;-71
2023/06/17 03:58:14;;;;;;;11.07;9.07;;;15.70;99.90;;;;;;2089435;28;20159;-71
2023/06/17 03:59:16;;;;;;;10.32;8.60;;;15.70;99.90;;;;;;2089712;28;20604;-71
2023/06/17 04:00:19;;;;;;;12.45;8.40;;;15.80;99.90;;;;;;2086452;28;20135;-70
2023/06/17 04:01:20;;;;;;;11.05;8.52;;;15.80;99.90;;;;;;2085819;28;20025;-72
2023/06/17 04:02:20;;;;;;;10.30;8.30;;;15.80;99.90;;;;;;2087984;28;20122;-70
2023/06/17 04:03:24;;;;;;;11.50;8.93;;;15.80;99.90;;;;;;2092536;28;20053;-72
2023/06/17 04:04:28;;;;;;;9.88;8.10;;;15.90;99.90;;;;;;2076060;28;20049;-70
2023/06/17 04:05:31;;;;;;;11.80;8.30;;;15.90;99.90;;;;;;2083978;28;20021;-71
2023/06/17 04:06:31;;;;;;;9.02;7.75;;;16.00;99.90;;;;;;2095151;28;20507;-72
2023/06/17 04:07:33;;;;;;;9.63;8.15;;;16.10;99.90;;;;;;2091338;28;20099;-72
2023/06/17 04:08:35;;;;;;;10.30;7.80;;;16.10;99.90;;;;;;2099895;28;20054;-71
2023/06/17 04:09:36;;;;;;;12.38;7.80;;;16.20;99.90;;;;;;2098296;28;20035;-72
2023/06/17 04:10:37;;;;;;;9.45;7.90;;;16.30;99.90;;;;;;2094578;28;20111;-72
2023/06/17 04:11:37;;;;;;;8.75;7.85;;;16.30;99.90;;;;;;2091680;28;20068;-71
2023/06/17 04:12:41;;;;;;;11.23;8.38;;;16.30;99.90;;;;;;2101251;28;20070;-71
2023/06/17 04:13:42;;;;;;;10.25;8.07;;;16.30;99.90;;;;;;2092235;28;20025;-71
2023/06/17 04:14:42;;;;;;;9.55;7.95;;;16.40;99.90;;;;;;2092135;28;20044;-71
2023/06/17 04:15:45;;;;;;;9.25;7.95;;;16.40;99.90;;;;;;2100234;28;20043;-71
2023/06/17 04:16:46;;;;;;;9.07;7.82;;;16.50;99.90;;;;;;2090764;28;20032;-70
2023/06/17 04:17:48;;;;;;;9.45;8.38;;;16.50;99.90;;;;;;2091103;28;20076;-71
2023/06/17 04:18:50;;;;;;;8.90;7.50;;;16.60;99.90;;;;;;2093947;28;20036;-71
2023/06/17 04:19:56;;;;;;;11.25;8.25;;;16.60;99.90;;;;;;2090853;28;20017;-71
2023/06/17 04:20:56;;;;;;;11.15;8.52;;;16.60;99.90;;;;;;2089993;28;20090;-71
2023/06/17 04:22:00;;;;;;;11.50;8.43;;;16.60;99.90;;;;;;2092933;28;20047;-71
2023/06/17 04:23:01;;;;;;;9.75;7.78;;;16.60;99.90;;;;;;2105302;28;20039;-71
2023/06/17 04:24:03;;;;;;;11.52;8.57;;;16.60;99.90;;;;;;2091794;28;20040;-71
2023/06/17 04:25:04;;;;;;;12.98;8.90;;;16.60;99.90;;;;;;2093446;28;20038;-71
2023/06/17 04:26:05;;;;;;;10.07;8.20;;;16.60;99.90;;;;;;2087683;28;20028;-71
2023/06/17 04:27:06;;;;;;;9.98;7.93;;;16.60;99.90;;;;;;2090611;28;20020;-72
2023/06/17 04:28:07;;;;;;;11.50;8.27;;;16.60;99.90;;;;;;2089456;28;20032;-70
2023/06/17 04:29:09;;;;;;;10.32;8.18;;;16.60;99.90;;;;;;2094398;28;20051;-70
2023/06/17 04:30:11;;;;;;;11.25;8.65;;;16.60;99.90;;;;;;2089480;28;20017;-71
2023/06/17 04:31:15;;;;;;;9.70;8.05;;;16.60;99.90;;;;;;2088770;28;20523;-71
2023/06/17 04:32:16;;;;;;;11.60;8.68;;;16.50;99.90;;;;;;2100815;28;20078;-71
2023/06/17 04:33:17;;;;;;;10.15;8.43;;;16.50;99.90;;;;;;2091330;28;20466;-71
2023/06/17 04:34:25;;;;;;;11.98;9.20;;;16.50;99.90;;;;;;2087361;28;20033;-71
2023/06/17 04:35:29;;;;;;;;;;;16.40;99.90;;;;;;2096499;28;20040;-70
2023/06/17 04:36:30;;;;;;;10.18;8.50;;;16.40;99.90;;;;;;2093212;28;19956;-71
2023/06/17 04:37:36;;;;;;;12.27;8.60;;;16.30;99.90;;;;;;2094319;28;20028;-70
2023/06/17 04:38:38;;;;;;;9.43;8.27;;;16.30;99.90;;;;;;2081934;28;20036;-71
2023/06/17 04:39:39;;;;;;;8.68;7.75;;;16.30;99.90;;;;;;2084915;28;20661;-71
2023/06/17 04:40:39;;;;;;;9.57;8.57;;;16.40;99.90;;;;;;2090557;28;20111;-71
2023/06/17 04:41:45;;;;;;;10.77;8.77;;;16.40;99.90;;;;;;2093043;28;20025;-71
2023/06/17 04:42:47;;;;;;;10.48;8.60;;;16.40;99.90;;;;;;2095613;28;20099;-71
2023/06/17 04:43:48;;;;;;;9.30;8.18;;;16.40;99.90;;;;;;2099927;28;20448;-71
2023/06/17 04:44:49;;;;;;;10.30;8.45;;;16.50;99.90;;;;;;2091879;28;20059;-71
2023/06/17 04:45:51;;;;;;;9.38;8.40;;;16.50;99.90;;;;;;2090659;28;20028;-71
2023/06/17 04:46:52;;;;;;;9.77;8.77;;;16.60;99.90;;;;;;2091231;28;20489;-71
2023/06/17 04:47:52;;;;;;;14.02;9.50;;;16.60;99.90;;;;;;2092340;28;20016;-71
2023/06/17 04:48:53;;;;;;;14.48;8.48;;;16.60;99.90;;;;;;2088546;28;20597;-71
2023/06/17 04:49:53;;;;;;;9.75;8.13;;;16.70;99.90;;;;;;2102424;28;20576;-71
2023/06/17 04:50:56;;;;;;;10.82;8.70;;;16.80;99.90;;;;;;2090951;28;20516;-71
2023/06/17 04:51:57;;;;;;;12.40;9.10;;;16.80;99.90;;;;;;2091243;28;20036;-71
2023/06/17 04:53:03;;;;;;;11.90;9.23;;;16.80;99.90;;;;;;2103318;28;20572;-71
2023/06/17 04:54:05;;;;;;;12.50;9.50;;;16.80;99.90;;;;;;2094992;28;20024;-71
2023/06/17 04:55:07;;;;;;;10.48;9.20;;;16.70;99.90;;;;;;2101982;28;20107;-70
2023/06/17 04:56:08;;;;;;;12.73;9.60;;;16.70;99.90;;;;;;2101712;28;20051;-71
2023/06/17 04:57:10;;;;;;;12.75;9.85;;;16.60;99.90;;;;;;2092414;28;20021;-71
2023/06/17 04:58:10;;;;;;;14.57;10.10;;;16.60;99.90;;;;;;2102115;28;20238;-71
2023/06/17 04:59:15;;;;;;;15.50;10.30;;;16.60;99.90;;;;;;2094056;28;20625;-71
2023/06/17 05:00:16;;;;;;;11.32;9.43;;;16.60;99.90;;;;;;2083082;28;20021;-71
2023/06/17 05:01:17;;;;;;;10.68;9.02;;;16.60;99.90;;;;;;2091039;28;20101;-71
2023/06/17 05:02:18;;;;;;;10.38;9.15;;;16.70;99.90;;;;;;2081669;28;20545;-71
2023/06/17 05:03:18;;;;;;;12.43;9.50;;;16.70;99.90;;;;;;2085895;28;20171;-71
2023/06/17 05:04:19;;;;;;;12.43;10.10;;;16.80;99.90;;;;;;2092141;28;20090;-71
2023/06/17 05:05:20;;;;;;;13.32;10.48;;;16.80;99.90;;;;;;2088178;28;20028;-71
2023/06/17 05:06:21;;;;;;;11.32;9.85;;;16.80;99.90;;;;;;2101052;28;20070;-71
2023/06/17 05:07:21;;;;;;;13.98;9.82;;;16.90;99.90;;;;;;2098098;28;20021;-71
2023/06/17 05:08:22;;;;;;;12.27;9.60;;;16.90;99.90;;;;;;2096987;28;20364;-71
2023/06/17 05:09:23;;;;;;;13.43;9.75;;;17.00;99.90;;;;;;2098152;28;20034;-71
2023/06/17 05:10:24;;;;;;;13.02;10.18;;;17.10;99.90;;;;;;2090662;28;20021;-71
2023/06/17 05:11:24;;;;;;;12.32;10.27;;;17.10;99.90;;;;;;2089208;28;20124;-71
2023/06/17 05:12:25;;;;;;;12.65;9.38;;;17.20;99.90;;;;;;2092908;28;20125;-71
2023/06/17 05:13:26;;;;;;;9.60;8.60;;;17.20;99.90;;;;;;2085789;28;20036;-71
2023/06/17 05:14:28;;;;;;;13.18;10.40;;;17.40;99.90;;;;;;2093267;28;20028;-72
2023/06/17 05:15:29;;;;;;;14.52;10.05;;;17.30;99.90;;;;;;2093915;28;20060;-71
2023/06/17 05:16:30;;;;;;;15.02;10.60;;;17.30;99.90;;;;;;2102033;28;20039;-70
2023/06/17 05:17:30;;;;;;;12.80;10.60;;;17.30;99.90;;;;;;2101968;28;20039;-70
2023/06/17 05:18:31;;;;;;;13.55;10.70;;;17.30;99.90;;;;;;2101239;28;20054;-70
2023/06/17 05:19:32;;;;;;;12.65;10.60;;;17.30;99.90;;;;;;2098942;28;20553;-70
2023/06/17 05:20:32;;;;;;;13.13;10.35;;;17.20;99.90;;;;;;2104046;28;20101;-72